Time;durP1;ratioP1;P1;durP2;ratioP2;P2;SDS_P1;SDS_P2;PMS_P1;PMS_P2;Temp;Humidity;BMP_temperature;BMP_pressure;BME280_temperature;BME280_humidity;BME280_pressure;Samples;Min_cycle;Max_cycle;Signal;HPM_P1;HPM_P2
2022/12/13 00:01:32;;;;;;;6.25;5.10;;;;;;;;;;4754961;30;20060;-69
2022/12/13 00:04:00;;;;;;;6.72;4.85;;;;;;;;;;4755202;30;20053;-70
2022/12/13 00:06:26;;;;;;;7.28;5.32;;;;;;;;;;4754878;30;20083;-70
2022/12/13 00:08:53;;;;;;;9.40;6.38;;;;;;;;;;4754686;30;20485;-69
2022/12/13 00:11:19;;;;;;;7.07;4.88;;;;;;;;;;4754789;30;20118;-70
2022/12/13 00:13:46;;;;;;;7.72;4.95;;;;;;;;;;4755271;30;20072;-69
2022/12/13 00:16:16;;;;;;;6.50;4.13;;;;;;;;;;4754480;30;20070;-69
2022/12/13 00:18:42;;;;;;;6.13;4.70;;;;;;;;;;4754410;30;20151;-69
2022/12/13 00:21:11;;;;;;;6.10;4.15;;;;;;;;;;4754593;30;20081;-69
2022/12/13 00:23:37;;;;;;;5.13;3.70;;;;;;;;;;4754738;30;20056;-69
2022/12/13 00:26:07;;;;;;;7.25;3.80;;;;;;;;;;4754551;30;20054;-70
2022/12/13 00:28:33;;;;;;;7.88;4.88;;;;;;;;;;4754256;30;20509;-70
2022/12/13 00:31:00;;;;;;;4.70;3.80;;;;;;;;;;4754477;30;20048;-69
2022/12/13 00:33:26;;;;;;;4.13;3.50;;;;;;;;;;4754762;30;20079;-69
2022/12/13 00:35:52;;;;;;;5.00;3.60;;;;;;;;;;4754395;30;20051;-70
2022/12/13 00:38:18;;;;;;;4.28;3.60;;;;;;;;;;4754303;30;20104;-69
2022/12/13 00:40:44;;;;;;;6.07;3.80;;;;;;;;;;4754018;30;20505;-69
2022/12/13 00:43:11;;;;;;;4.68;3.80;;;;;;;;;;4754831;30;20052;-69
2022/12/13 00:45:37;;;;;;;3.65;3.33;;;;;;;;;;4754738;30;20480;-69
2022/12/13 00:48:04;;;;;;;5.40;3.45;;;;;;;;;;4754196;30;20064;-69
2022/12/13 00:50:30;;;;;;;4.40;3.50;;;;;;;;;;4754188;30;20079;-69
2022/12/13 00:52:56;;;;;;;4.70;3.85;;;;;;;;;;4753176;30;20131;-69
2022/12/13 00:55:22;;;;;;;4.45;3.70;;;;;;;;;;4753879;30;20123;-69
2022/12/13 00:57:48;;;;;;;5.07;4.13;;;;;;;;;;4753871;30;20492;-69
2022/12/13 01:00:15;;;;;;;17.00;8.80;;;;;;;;;;4753479;30;20052;-69
2022/12/13 01:02:42;;;;;;;12.35;7.38;;;;;;;;;;4753886;30;20059;-69
2022/12/13 01:05:08;;;;;;;11.90;6.95;;;;;;;;;;4753683;30;20036;-69
2022/12/13 01:07:35;;;;;;;13.43;7.00;;;;;;;;;;4753380;30;20052;-69
2022/12/13 01:10:01;;;;;;;12.82;7.30;;;;;;;;;;4753713;30;20089;-69
2022/12/13 01:12:27;;;;;;;10.32;6.60;;;;;;;;;;4753836;30;20532;-69
2022/12/13 01:14:54;;;;;;;11.25;6.88;;;;;;;;;;4753382;30;20055;-69
2022/12/13 01:17:20;;;;;;;9.98;7.53;;;;;;;;;;4751997;30;20044;-69
2022/12/13 01:19:46;;;;;;;9.00;6.05;;;;;;;;;;4753493;30;20413;-69
2022/12/13 01:22:12;;;;;;;9.60;6.53;;;;;;;;;;4753609;30;20113;-69
2022/12/13 01:24:38;;;;;;;6.85;5.07;;;;;;;;;;4753582;30;20051;-69
2022/12/13 01:27:04;;;;;;;4.60;3.90;;;;;;;;;;4753775;30;20040;-69
2022/12/13 01:29:31;;;;;;;6.18;4.05;;;;;;;;;;4753323;30;20074;-69
2022/12/13 01:31:57;;;;;;;4.60;4.00;;;;;;;;;;4753794;30;20076;-69
2022/12/13 01:34:23;;;;;;;6.65;4.25;;;;;;;;;;4753563;30;20050;-69
2022/12/13 01:36:49;;;;;;;5.18;3.70;;;;;;;;;;4753204;30;20048;-69
2022/12/13 01:39:18;;;;;;;4.95;3.75;;;;;;;;;;4753935;30;20040;-69
2022/12/13 01:41:45;;;;;;;6.85;5.28;;;;;;;;;;4753423;30;20516;-69
2022/12/13 01:44:29;;;;;;;5.68;4.57;;;;;;;;;;4753108;30;20116;-69
2022/12/13 01:46:55;;;;;;;5.30;4.35;;;;;;;;;;4753227;30;20147;-69
2022/12/13 01:49:22;;;;;;;5.50;4.90;;;;;;;;;;4753756;30;20123;-69
2022/12/13 01:51:58;;;;;;;5.80;4.78;;;;;;;;;;4753504;30;20052;-69
2022/12/13 01:54:29;;;;;;;5.90;4.78;;;;;;;;;;4753988;30;20109;-69
2022/12/13 01:56:57;;;;;;;5.07;4.53;;;;;;;;;;4753919;30;20123;-69
2022/12/13 01:59:23;;;;;;;6.32;4.63;;;;;;;;;;4753880;30;20052;-69
2022/12/13 02:01:50;;;;;;;4.60;4.05;;;;;;;;;;4753513;30;20162;-69
2022/12/13 02:04:25;;;;;;;4.63;4.10;;;;;;;;;;4753581;30;20097;-69
2022/12/13 02:06:52;;;;;;;5.75;4.60;;;;;;;;;;4753310;30;20078;-70
2022/12/13 02:09:18;;;;;;;8.02;6.75;;;;;;;;;;4753608;30;20160;-69
2022/12/13 02:11:45;;;;;;;9.52;6.90;;;;;;;;;;4753819;30;20048;-69
2022/12/13 02:14:11;;;;;;;11.55;8.07;;;;;;;;;;4753510;30;20493;-69
2022/12/13 02:16:55;;;;;;;16.05;10.32;;;;;;;;;;4753803;30;20055;-69
2022/12/13 02:19:43;;;;;;;16.55;11.32;;;;;;;;;;4756711;30;20044;-69
2022/12/13 02:22:15;;;;;;;15.90;11.18;;;;;;;;;;4756289;30;20056;-69
2022/12/13 02:24:57;;;;;;;16.83;11.95;;;;;;;;;;4756612;30;20052;-69
2022/12/13 02:27:32;;;;;;;11.68;8.10;;;;;;;;;;4756101;30;20055;-69
2022/12/13 02:30:21;;;;;;;12.93;8.70;;;;;;;;;;4756526;30;20047;-69
2022/12/13 02:32:56;;;;;;;9.02;7.13;;;;;;;;;;4756149;30;20055;-69
2022/12/13 02:35:25;;;;;;;10.02;8.20;;;;;;;;;;4756729;30;20571;-69
2022/12/13 02:38:10;;;;;;;12.10;8.55;;;;;;;;;;4756255;30;20055;-69
2022/12/13 02:40:42;;;;;;;10.02;7.72;;;;;;;;;;4755994;30;20143;-70
2022/12/13 02:43:12;;;;;;;9.02;7.00;;;;;;;;;;4756830;30;20093;-69
2022/12/13 02:45:44;;;;;;;9.15;7.22;;;;;;;;;;4756477;30;20512;-69
2022/12/13 02:48:13;;;;;;;10.13;7.22;;;;;;;;;;4756553;30;20068;-70
2022/12/13 02:50:40;;;;;;;11.63;7.88;;;;;;;;;;4756673;30;20120;-70
2022/12/13 02:53:06;;;;;;;12.13;8.43;;;;;;;;;;4756160;30;20044;-70
2022/12/13 02:55:34;;;;;;;9.95;6.95;;;;;;;;;;4755843;30;20071;-69
2022/12/13 02:58:00;;;;;;;8.43;6.90;;;;;;;;;;4755754;30;20082;-69
2022/12/13 03:00:46;;;;;;;9.50;7.10;;;;;;;;;;4756067;30;20538;-69
2022/12/13 03:03:20;;;;;;;9.13;7.38;;;;;;;;;;4755511;30;20389;-69
2022/12/13 03:08:44;;;;;;;8.20;6.22;;;;;;;;;;4755597;30;20070;-69
2022/12/13 03:11:13;;;;;;;7.80;6.15;;;;;;;;;;4755800;30;20110;-69
2022/12/13 03:13:42;;;;;;;7.82;5.53;;;;;;;;;;4756397;30;20079;-69
2022/12/13 03:16:17;;;;;;;6.97;5.63;;;;;;;;;;4755779;30;20094;-70
2022/12/13 03:18:43;;;;;;;6.88;5.22;;;;;;;;;;4755841;30;20131;-69
2022/12/13 03:21:11;;;;;;;6.35;5.15;;;;;;;;;;4755286;30;20102;-70
2022/12/13 03:23:38;;;;;;;6.60;5.05;;;;;;;;;;4755589;30;20052;-69
2022/12/13 03:26:10;;;;;;;6.28;5.32;;;;;;;;;;4755582;30;20052;-69
2022/12/13 03:28:36;;;;;;;8.32;6.47;;;;;;;;;;4754688;30;20040;-69
2022/12/13 03:31:03;;;;;;;8.45;7.03;;;;;;;;;;4755513;30;20048;-69
2022/12/13 03:33:29;;;;;;;10.15;7.53;;;;;;;;;;4756020;30;20044;-69
2022/12/13 03:35:55;;;;;;;9.52;8.07;;;;;;;;;;4755409;30;20131;-69
2022/12/13 03:38:22;;;;;;;11.32;8.70;;;;;;;;;;4755361;30;20139;-69
2022/12/13 03:40:48;;;;;;;9.38;7.20;;;;;;;;;;4754646;30;20420;-69
2022/12/13 03:43:14;;;;;;;9.95;7.30;;;;;;;;;;4755014;30;20044;-69
2022/12/13 03:45:40;;;;;;;9.32;7.10;;;;;;;;;;4755283;30;20051;-69
2022/12/13 03:48:06;;;;;;;10.77;7.90;;;;;;;;;;4755925;30;20068;-69
2022/12/13 03:50:32;;;;;;;13.05;9.40;;;;;;;;;;4754644;30;20082;-69
2022/12/13 03:52:59;;;;;;;9.30;7.75;;;;;;;;;;4754177;30;20048;-69
2022/12/13 03:55:25;;;;;;;12.57;8.77;;;;;;;;;;4755072;30;20048;-69
2022/12/13 03:57:51;;;;;;;9.30;7.85;;;;;;;;;;4754791;30;20047;-69
2022/12/13 04:00:18;;;;;;;8.35;6.00;;;;;;;;;;4755148;30;20048;-69
2022/12/13 04:02:44;;;;;;;6.65;5.30;;;;;;;;;;4754745;30;20062;-69
2022/12/13 04:05:10;;;;;;;5.70;4.90;;;;;;;;;;4755189;30;20044;-69
2022/12/13 04:07:36;;;;;;;6.03;4.82;;;;;;;;;;4754483;30;20085;-69
2022/12/13 04:10:03;;;;;;;7.30;5.97;;;;;;;;;;4754345;30;20055;-69
2022/12/13 04:15:14;;;;;;;7.22;5.97;;;;;;;;;;4754016;30;20047;-69
2022/12/13 04:17:40;;;;;;;7.53;5.68;;;;;;;;;;4754493;30;20055;-69
2022/12/13 04:20:07;;;;;;;7.72;6.00;;;;;;;;;;4754557;30;20039;-69
2022/12/13 04:22:33;;;;;;;6.45;5.45;;;;;;;;;;4754024;30;20152;-69
2022/12/13 04:24:59;;;;;;;8.70;7.57;;;;;;;;;;4754360;30;20044;-69
2022/12/13 04:27:25;;;;;;;9.40;7.70;;;;;;;;;;4754302;30;20044;-69
2022/12/13 04:29:51;;;;;;;8.23;7.07;;;;;;;;;;4754277;30;20079;-69
2022/12/13 04:32:17;;;;;;;9.23;7.38;;;;;;;;;;4754394;30;20580;-69
2022/12/13 04:34:44;;;;;;;13.38;10.63;;;;;;;;;;4754423;30;20123;-69
2022/12/13 04:37:10;;;;;;;11.40;9.15;;;;;;;;;;4754011;30;20075;-69
2022/12/13 04:39:36;;;;;;;14.75;10.82;;;;;;;;;;4754222;30;20091;-69
2022/12/13 04:42:02;;;;;;;15.05;10.52;;;;;;;;;;4753538;30;20095;-69
2022/12/13 04:44:28;;;;;;;15.85;10.63;;;;;;;;;;4754047;30;20071;-69
2022/12/13 04:46:54;;;;;;;17.27;12.30;;;;;;;;;;4753526;30;20146;-69
2022/12/13 04:49:20;;;;;;;14.98;11.75;;;;;;;;;;4753958;30;20047;-69
2022/12/13 04:51:46;;;;;;;14.73;10.80;;;;;;;;;;4754152;30;20101;-69
2022/12/13 04:54:13;;;;;;;14.77;11.43;;;;;;;;;;4754669;30;20123;-69
2022/12/13 04:56:39;;;;;;;14.32;10.80;;;;;;;;;;4753619;30;20131;-70
2022/12/13 04:59:05;;;;;;;11.70;9.43;;;;;;;;;;4753594;30;20048;-69
2022/12/13 05:01:31;;;;;;;13.68;10.57;;;;;;;;;;4753548;30;20064;-69
2022/12/13 05:03:57;;;;;;;10.93;8.57;;;;;;;;;;4753771;30;20159;-70
2022/12/13 05:06:24;;;;;;;13.00;9.15;;;;;;;;;;4753477;30;20105;-69
2022/12/13 05:08:50;;;;;;;12.48;9.13;;;;;;;;;;4753520;30;20106;-70
2022/12/13 05:11:16;;;;;;;9.73;7.90;;;;;;;;;;4753780;30;20079;-69
2022/12/13 05:13:42;;;;;;;6.40;5.40;;;;;;;;;;4754045;30;20110;-69
2022/12/13 05:16:08;;;;;;;4.10;3.55;;;;;;;;;;4753676;30;20110;-69
2022/12/13 05:18:35;;;;;;;4.57;3.58;;;;;;;;;;4753902;30;20048;-69
2022/12/13 05:21:06;;;;;;;5.43;4.43;;;;;;;;;;4753330;30;20143;-69
2022/12/13 05:23:32;;;;;;;6.85;5.25;;;;;;;;;;4753748;30;20049;-69
2022/12/13 05:25:58;;;;;;;7.72;6.50;;;;;;;;;;4753613;30;20056;-69
2022/12/13 05:28:27;;;;;;;9.48;7.07;;;;;;;;;;4753625;30;20079;-70
2022/12/13 05:30:57;;;;;;;12.00;9.75;;;;;;;;;;4752949;30;20056;-69
2022/12/13 05:33:24;;;;;;;11.15;8.07;;;;;;;;;;4753835;30;20052;-69
2022/12/13 05:35:50;;;;;;;11.55;8.40;;;;;;;;;;4752208;30;20044;-69
2022/12/13 05:38:16;;;;;;;9.35;6.72;;;;;;;;;;4752634;30;20186;-69
2022/12/13 05:40:43;;;;;;;9.23;6.32;;;;;;;;;;4752005;30;20056;-69
2022/12/13 05:43:10;;;;;;;7.55;6.63;;;;;;;;;;4751567;30;20052;-69
2022/12/13 05:45:37;;;;;;;7.88;6.50;;;;;;;;;;4751874;30;20052;-69
2022/12/13 05:48:03;;;;;;;6.55;5.63;;;;;;;;;;4752943;30;20063;-69
2022/12/13 05:50:30;;;;;;;4.95;4.28;;;;;;;;;;4750937;30;20370;-69
2022/12/13 05:52:56;;;;;;;3.92;3.35;;;;;;;;;;4755398;30;20586;-69
2022/12/13 05:55:22;;;;;;;4.10;3.70;;;;;;;;;;4756498;30;20043;-69
2022/12/13 05:57:48;;;;;;;4.15;3.45;;;;;;;;;;4756457;30;20059;-69
2022/12/13 06:00:14;;;;;;;2.90;2.60;;;;;;;;;;4756945;30;20047;-69
2022/12/13 06:02:41;;;;;;;4.00;3.30;;;;;;;;;;4756694;30;20505;-69
2022/12/13 06:05:08;;;;;;;3.38;3.08;;;;;;;;;;4758921;30;20051;-69
2022/12/13 06:07:35;;;;;;;3.47;3.17;;;;;;;;;;4758984;30;20044;-69
2022/12/13 06:10:01;;;;;;;4.38;3.28;;;;;;;;;;4756345;30;20048;-69
2022/12/13 06:12:27;;;;;;;12.50;3.17;;;;;;;;;;4763081;30;20060;-68
2022/12/13 06:14:53;;;;;;;3.92;3.30;;;;;;;;;;4758436;30;20051;-67
2022/12/13 06:17:23;;;;;;;4.30;3.42;;;;;;;;;;4758503;30;20040;-68
2022/12/13 06:19:50;;;;;;;3.70;3.40;;;;;;;;;;4766363;30;20055;-69
2022/12/13 06:22:16;;;;;;;3.85;3.22;;;;;;;;;;4754284;30;20059;-69
2022/12/13 06:24:42;;;;;;;4.68;3.10;;;;;;;;;;4755673;30;20092;-68
2022/12/13 06:27:08;;;;;;;5.22;4.72;;;;;;;;;;4756059;30;20052;-68
2022/12/13 06:29:34;;;;;;;4.93;3.75;;;;;;;;;;4756313;30;20044;-68
2022/12/13 06:32:02;;;;;;;5.00;4.20;;;;;;;;;;4756076;30;20052;-68
2022/12/13 06:34:28;;;;;;;5.78;4.10;;;;;;;;;;4764486;30;20103;-69
2022/12/13 06:36:54;;;;;;;6.05;4.78;;;;;;;;;;4760813;30;20079;-68
2022/12/13 06:39:20;;;;;;;4.93;3.95;;;;;;;;;;4762850;30;20045;-68
2022/12/13 06:41:47;;;;;;;4.20;3.70;;;;;;;;;;4756639;30;20060;-68
2022/12/13 06:44:13;;;;;;;4.35;3.58;;;;;;;;;;4771337;30;20039;-69
2022/12/13 06:46:39;;;;;;;3.80;3.40;;;;;;;;;;4765746;30;20052;-69
2022/12/13 06:49:05;;;;;;;3.75;3.33;;;;;;;;;;4771784;30;20130;-68
2022/12/13 06:51:32;;;;;;;4.35;3.78;;;;;;;;;;4773624;30;20059;-68
2022/12/13 06:53:58;;;;;;;4.88;4.18;;;;;;;;;;4771846;30;20036;-68
2022/12/13 06:56:24;;;;;;;4.03;3.63;;;;;;;;;;4756969;30;20044;-69
2022/12/13 06:58:51;;;;;;;6.38;4.50;;;;;;;;;;4766964;30;20039;-68
2022/12/13 07:01:18;;;;;;;5.32;4.30;;;;;;;;;;4773097;30;20412;-68
2022/12/13 07:03:44;;;;;;;4.80;4.30;;;;;;;;;;4767869;30;20513;-68
2022/12/13 07:06:13;;;;;;;6.32;4.25;;;;;;;;;;4755530;30;20506;-68
2022/12/13 07:08:40;;;;;;;5.05;4.07;;;;;;;;;;4757767;30;20512;-68
2022/12/13 07:11:06;;;;;;;4.38;3.20;;;;;;;;;;4771708;30;20056;-68
2022/12/13 07:13:35;;;;;;;14.50;3.65;;;;;;;;;;4757022;30;20055;-68
2022/12/13 07:16:01;;;;;;;6.90;2.42;;;;;;;;;;4755488;30;20040;-69
2022/12/13 07:18:27;;;;;;;11.32;2.47;;;;;;;;;;4755949;30;20420;-68
2022/12/13 07:20:54;;;;;;;9.57;1.95;;;;;;;;;;4758674;30;20060;-68
2022/12/13 07:23:20;;;;;;;10.07;2.45;;;;;;;;;;4759734;30;20102;-68
2022/12/13 07:25:52;;;;;;;16.25;2.45;;;;;;;;;;4772719;30;20127;-68
2022/12/13 07:28:19;;;;;;;14.30;2.65;;;;;;;;;;4761748;30;20043;-68
2022/12/13 07:30:45;;;;;;;15.00;3.35;;;;;;;;;;4760378;30;20092;-68
2022/12/13 07:33:12;;;;;;;18.33;3.00;;;;;;;;;;4754830;30;20052;-69
2022/12/13 07:35:38;;;;;;;10.25;2.10;;;;;;;;;;4754913;30;20044;-69
2022/12/13 07:38:05;;;;;;;11.48;2.67;;;;;;;;;;4755158;30;20044;-69
2022/12/13 07:40:32;;;;;;;17.50;2.47;;;;;;;;;;4763788;30;20105;-69
2022/12/13 07:42:58;;;;;;;12.77;2.85;;;;;;;;;;4773401;30;20048;-69
2022/12/13 07:45:25;;;;;;;10.10;2.60;;;;;;;;;;4771213;30;20040;-69
2022/12/13 07:47:51;;;;;;;18.20;2.85;;;;;;;;;;4764761;30;20408;-69
2022/12/13 07:50:19;;;;;;;13.00;3.05;;;;;;;;;;4755421;30;20114;-68
2022/12/13 07:52:46;;;;;;;11.63;3.08;;;;;;;;;;4766085;30;20492;-69
2022/12/13 07:55:12;;;;;;;14.90;2.30;;;;;;;;;;4769333;30;20059;-68
2022/12/13 07:57:38;;;;;;;12.43;3.25;;;;;;;;;;4759840;30;20130;-68
2022/12/13 08:00:05;;;;;;;15.00;3.20;;;;;;;;;;4759087;30;20173;-68
2022/12/13 08:02:31;;;;;;;19.05;3.63;;;;;;;;;;4759450;30;20520;-69
2022/12/13 08:04:57;;;;;;;15.95;3.80;;;;;;;;;;4758638;30;20154;-68
2022/12/13 08:07:23;;;;;;;20.08;4.10;;;;;;;;;;4752625;30;20079;-68
2022/12/13 08:09:49;;;;;;;16.58;3.92;;;;;;;;;;4764612;30;20045;-68
2022/12/13 08:12:16;;;;;;;19.85;3.38;;;;;;;;;;4772178;30;20052;-68
2022/12/13 08:14:42;;;;;;;18.92;3.53;;;;;;;;;;4766124;30;20048;-68
2022/12/13 08:17:08;;;;;;;19.73;4.63;;;;;;;;;;4754749;30;20106;-68
2022/12/13 08:19:34;;;;;;;13.57;4.25;;;;;;;;;;4756461;30;20464;-68
2022/12/13 08:22:01;;;;;;;23.02;4.70;;;;;;;;;;4753334;30;20579;-69
2022/12/13 08:24:28;;;;;;;22.02;5.40;;;;;;;;;;4754218;30;20489;-69
2022/12/13 08:26:56;;;;;;;16.05;5.57;;;;;;;;;;4754124;30;20052;-68
2022/12/13 08:29:22;;;;;;;22.15;4.22;;;;;;;;;;4755997;30;20043;-68
2022/12/13 08:31:48;;;;;;;16.15;4.20;;;;;;;;;;4761206;30;20525;-67
2022/12/13 08:34:15;;;;;;;18.98;3.85;;;;;;;;;;4763326;30;20577;-68
2022/12/13 08:36:41;;;;;;;15.40;3.53;;;;;;;;;;4764306;30;20057;-68
2022/12/13 08:39:07;;;;;;;17.08;3.42;;;;;;;;;;4743710;30;20054;-68
2022/12/13 08:41:34;;;;;;;14.73;3.40;;;;;;;;;;4747386;30;20071;-68
2022/12/13 08:44:00;;;;;;;14.57;2.90;;;;;;;;;;4763051;30;20520;-69
2022/12/13 08:46:26;;;;;;;14.98;2.80;;;;;;;;;;4770626;30;20126;-69
2022/12/13 08:48:55;;;;;;;12.13;2.95;;;;;;;;;;4766235;30;20148;-69
2022/12/13 08:51:23;;;;;;;10.80;2.60;;;;;;;;;;4759403;30;20052;-68
2022/12/13 08:53:51;;;;;;;17.63;2.90;;;;;;;;;;4768417;30;20478;-69
2022/12/13 08:56:17;;;;;;;13.52;3.33;;;;;;;;;;4757852;30;20048;-69
2022/12/13 08:58:44;;;;;;;11.00;3.28;;;;;;;;;;4769957;30;20049;-69
2022/12/13 09:01:11;;;;;;;11.40;3.17;;;;;;;;;;4756614;30;20063;-68
2022/12/13 09:03:37;;;;;;;13.55;3.55;;;;;;;;;;4759205;30;20104;-68
2022/12/13 09:06:10;;;;;;;15.95;6.32;;;;;;;;;;4761989;30;20135;-68
2022/12/13 09:08:36;;;;;;;13.68;4.20;;;;;;;;;;4771380;30;20055;-68
2022/12/13 09:11:03;;;;;;;12.63;3.78;;;;;;;;;;4770059;30;20048;-68
2022/12/13 09:13:31;;;;;;;13.68;4.63;;;;;;;;;;4735930;30;20063;-68
2022/12/13 09:15:58;;;;;;;9.20;3.58;;;;;;;;;;4746109;30;20040;-68
2022/12/13 09:18:24;;;;;;;14.23;4.55;;;;;;;;;;4764665;30;20455;-68
2022/12/13 09:20:50;;;;;;;15.95;5.63;;;;;;;;;;4765295;30;20054;-68
2022/12/13 09:23:16;;;;;;;12.93;4.53;;;;;;;;;;4758293;30;20429;-69
2022/12/13 09:25:42;;;;;;;11.52;4.00;;;;;;;;;;4750286;30;20044;-68
2022/12/13 09:28:08;;;;;;;11.90;3.13;;;;;;;;;;4756092;30;20048;-69
2022/12/13 09:30:36;;;;;;;11.52;3.70;;;;;;;;;;4755981;30;20044;-68
2022/12/13 09:33:02;;;;;;;11.32;3.90;;;;;;;;;;4756813;30;20581;-69
2022/12/13 09:35:28;;;;;;;12.75;4.63;;;;;;;;;;4767368;30;20504;-69
2022/12/13 09:37:54;;;;;;;15.00;2.78;;;;;;;;;;4774893;30;20083;-70
2022/12/13 09:40:23;;;;;;;14.57;3.58;;;;;;;;;;4770505;30;20051;-70
2022/12/13 09:42:51;;;;;;;11.50;4.13;;;;;;;;;;4761626;30;20092;-69
2022/12/13 09:45:17;;;;;;;16.00;4.97;;;;;;;;;;4760892;30;20048;-70
2022/12/13 09:47:44;;;;;;;15.77;3.55;;;;;;;;;;4768836;30;20060;-70
2022/12/13 09:50:15;;;;;;;15.38;3.80;;;;;;;;;;4756972;30;20056;-68
2022/12/13 09:52:43;;;;;;;20.50;5.93;;;;;;;;;;4756535;30;20044;-69
2022/12/13 09:55:23;;;;;;;11.13;4.50;;;;;;;;;;4756598;30;20048;-70
2022/12/13 09:57:49;;;;;;;7.07;5.03;;;;;;;;;;4760677;30;20055;-71
2022/12/13 10:00:18;;;;;;;8.45;5.25;;;;;;;;;;4758330;30;20048;-70
2022/12/13 10:02:45;;;;;;;5.72;5.20;;;;;;;;;;4764219;30;20435;-70
2022/12/13 10:05:12;;;;;;;7.10;5.13;;;;;;;;;;4771934;30;20105;-70
2022/12/13 10:07:39;;;;;;;6.38;4.93;;;;;;;;;;4756498;30;20117;-70
2022/12/13 10:10:05;;;;;;;5.75;4.68;;;;;;;;;;4756857;30;20042;-70
2022/12/13 10:12:32;;;;;;;7.90;4.93;;;;;;;;;;4767326;30;20116;-70
2022/12/13 10:15:00;;;;;;;5.53;4.75;;;;;;;;;;4774055;30;20040;-70
2022/12/13 10:17:28;;;;;;;7.18;5.05;;;;;;;;;;4774081;30;20186;-70
2022/12/13 10:19:54;;;;;;;7.32;5.80;;;;;;;;;;4774514;30;20074;-70
2022/12/13 10:22:24;;;;;;;5.88;5.05;;;;;;;;;;4773775;30;20524;-70
2022/12/13 10:25:02;;;;;;;6.50;5.18;;;;;;;;;;4774184;30;20055;-70
2022/12/13 10:27:33;;;;;;;4.53;4.05;;;;;;;;;;4773341;30;20043;-70
2022/12/13 10:29:59;;;;;;;5.88;3.80;;;;;;;;;;4774431;30;20055;-70
2022/12/13 10:32:25;;;;;;;4.60;4.07;;;;;;;;;;4774113;30;20132;-70
2022/12/13 10:34:54;;;;;;;4.82;4.28;;;;;;;;;;4773696;30;20135;-70
2022/12/13 10:37:26;;;;;;;4.35;3.45;;;;;;;;;;4772952;30;20036;-70
2022/12/13 10:39:53;;;;;;;3.75;3.45;;;;;;;;;;4773883;30;20131;-70
2022/12/13 10:42:20;;;;;;;3.53;3.22;;;;;;;;;;4773938;30;20068;-70
2022/12/13 10:44:47;;;;;;;4.00;3.60;;;;;;;;;;4774060;30;20052;-70
2022/12/13 10:47:18;;;;;;;4.15;3.40;;;;;;;;;;4773555;30;20194;-70
2022/12/13 10:49:47;;;;;;;5.72;3.65;;;;;;;;;;4773731;30;20048;-70
2022/12/13 10:52:33;;;;;;;4.15;3.75;;;;;;;;;;4773651;30;20059;-70
2022/12/13 10:55:04;;;;;;;3.63;3.20;;;;;;;;;;4773665;30;20051;-70
2022/12/13 10:57:31;;;;;;;5.28;4.35;;;;;;;;;;4773689;30;20514;-70
2022/12/13 10:59:57;;;;;;;5.05;4.18;;;;;;;;;;4773554;30;20132;-70
2022/12/13 11:02:35;;;;;;;4.75;3.90;;;;;;;;;;4773373;30;20062;-70
2022/12/13 11:05:20;;;;;;;5.60;4.63;;;;;;;;;;4773486;30;20054;-70
2022/12/13 11:07:46;;;;;;;5.10;3.97;;;;;;;;;;4772939;30;20063;-70
2022/12/13 11:10:17;;;;;;;6.15;4.88;;;;;;;;;;4773369;30;20059;-70
2022/12/13 11:12:43;;;;;;;;;;;;;;;;;;4773852;30;20047;-70
2022/12/13 11:15:18;;;;;;;4.97;4.43;;;;;;;;;;4773231;30;19913;-70
2022/12/13 11:17:56;;;;;;;4.40;4.00;;;;;;;;;;4773032;30;20201;-70
2022/12/13 11:20:28;;;;;;;3.40;3.10;;;;;;;;;;4773150;30;20051;-70
2022/12/13 11:23:05;;;;;;;4.28;3.90;;;;;;;;;;4773618;30;20530;-70
2022/12/13 11:25:39;;;;;;;4.80;4.30;;;;;;;;;;4772839;30;20408;-70
2022/12/13 11:28:24;;;;;;;4.50;4.10;;;;;;;;;;4772555;30;20056;-70
2022/12/13 11:30:53;;;;;;;4.43;3.80;;;;;;;;;;4773003;30;20039;-70
2022/12/13 11:33:26;;;;;;;5.35;3.88;;;;;;;;;;4773069;30;20056;-70
2022/12/13 11:36:10;;;;;;;4.07;3.65;;;;;;;;;;4772679;30;20051;-70
2022/12/13 11:38:39;;;;;;;5.00;4.50;;;;;;;;;;4772759;30;20043;-70
2022/12/13 11:41:11;;;;;;;4.90;3.72;;;;;;;;;;4772839;30;20052;-70
2022/12/13 11:43:52;;;;;;;4.28;3.83;;;;;;;;;;4773125;30;20055;-70
2022/12/13 11:46:38;;;;;;;5.88;5.10;;;;;;;;;;4772823;30;20044;-70
2022/12/13 11:49:09;;;;;;;5.82;5.22;;;;;;;;;;4772431;30;20048;-70
2022/12/13 11:51:55;;;;;;;7.20;5.03;;;;;;;;;;4773124;30;20056;-70
2022/12/13 11:54:27;;;;;;;5.22;4.45;;;;;;;;;;4772779;30;20055;-70
2022/12/13 11:56:56;;;;;;;4.78;4.28;;;;;;;;;;4772980;30;20151;-70
2022/12/13 11:59:49;;;;;;;5.82;4.63;;;;;;;;;;4772520;30;20039;-70
2022/12/13 12:02:21;;;;;;;8.10;5.30;;;;;;;;;;4770074;30;20060;-70
2022/12/13 12:04:54;;;;;;;7.18;4.70;;;;;;;;;;4773016;30;20048;-70
2022/12/13 12:07:24;;;;;;;5.07;4.40;;;;;;;;;;4772641;30;20052;-70
2022/12/13 12:09:57;;;;;;;5.47;4.55;;;;;;;;;;4772996;30;20044;-70
2022/12/13 12:12:29;;;;;;;5.00;4.47;;;;;;;;;;4772701;30;20121;-70
2022/12/13 12:14:59;;;;;;;5.72;4.78;;;;;;;;;;4772607;30;20181;-70
2022/12/13 12:17:25;;;;;;;5.50;4.97;;;;;;;;;;4772330;30;20048;-70
2022/12/13 12:19:56;;;;;;;7.88;5.32;;;;;;;;;;4772526;30;20040;-70
2022/12/13 12:22:22;;;;;;;;;;;;;;;;;;4772498;30;20107;-70
2022/12/13 12:24:48;;;;;;;5.72;5.22;;;;;;;;;;4772355;30;20347;-70
2022/12/13 12:27:17;;;;;;;6.15;4.78;;;;;;;;;;4772340;30;20138;-71
2022/12/13 12:29:49;;;;;;;5.15;3.88;;;;;;;;;;4772342;30;20054;-70
2022/12/13 12:32:15;;;;;;;4.90;4.35;;;;;;;;;;4772413;30;20055;-70
2022/12/13 12:34:56;;;;;;;5.35;4.70;;;;;;;;;;4772014;30;20081;-70
2022/12/13 12:37:29;;;;;;;8.70;5.97;;;;;;;;;;4772228;30;20127;-70
2022/12/13 12:39:56;;;;;;;6.65;5.40;;;;;;;;;;4772200;30;20086;-70
2022/12/13 12:42:24;;;;;;;6.15;5.55;;;;;;;;;;4771917;30;20055;-70
2022/12/13 12:44:51;;;;;;;5.88;5.18;;;;;;;;;;4772052;30;20051;-70
2022/12/13 12:47:35;;;;;;;6.15;5.55;;;;;;;;;;4771652;30;20146;-70
2022/12/13 12:50:22;;;;;;;6.85;5.63;;;;;;;;;;4771804;30;20048;-70
2022/12/13 12:52:54;;;;;;;6.40;5.35;;;;;;;;;;4771384;30;20043;-70
2022/12/13 12:55:23;;;;;;;6.75;6.00;;;;;;;;;;4771138;30;20051;-70
2022/12/13 12:57:49;;;;;;;7.82;6.03;;;;;;;;;;4771414;30;20543;-71
2022/12/13 13:00:15;;;;;;;6.45;5.47;;;;;;;;;;4771373;30;20058;-70
2022/12/13 13:02:57;;;;;;;6.85;5.35;;;;;;;;;;4771614;30;20058;-70
2022/12/13 13:05:31;;;;;;;6.15;5.38;;;;;;;;;;4771574;30;20058;-71
2022/12/13 13:08:11;;;;;;;6.07;5.30;;;;;;;;;;4771576;30;20054;-71
2022/12/13 13:10:39;;;;;;;5.80;5.20;;;;;;;;;;4771816;30;20514;-71
2022/12/13 13:13:05;;;;;;;8.00;6.40;;;;;;;;;;4772104;30;20052;-71
2022/12/13 13:15:31;;;;;;;6.28;5.18;;;;;;;;;;4771211;30;20056;-71
2022/12/13 13:17:57;;;;;;;6.10;4.95;;;;;;;;;;4772002;30;20057;-71
2022/12/13 13:20:24;;;;;;;5.18;4.18;;;;;;;;;;4746195;30;20053;-70
2022/12/13 13:22:56;;;;;;;6.90;4.57;;;;;;;;;;4752749;30;20059;-71
2022/12/13 13:25:25;;;;;;;4.35;3.95;;;;;;;;;;4753353;30;20052;-71
2022/12/13 13:27:52;;;;;;;5.00;4.30;;;;;;;;;;4753185;30;20044;-71
2022/12/13 13:30:18;;;;;;;6.80;3.83;;;;;;;;;;4753236;30;20106;-71
2022/12/13 13:32:45;;;;;;;4.78;4.32;;;;;;;;;;4753274;30;20051;-71
2022/12/13 13:35:30;;;;;;;4.82;4.32;;;;;;;;;;4752989;30;20055;-71
2022/12/13 13:37:57;;;;;;;5.47;4.22;;;;;;;;;;4752967;30;20051;-71
2022/12/13 13:40:33;;;;;;;5.13;4.40;;;;;;;;;;4753162;30;20044;-71
2022/12/13 13:43:09;;;;;;;6.75;4.75;;;;;;;;;;4753078;30;20134;-71
2022/12/13 13:45:51;;;;;;;7.55;6.25;;;;;;;;;;4752795;30;20401;-71
2022/12/13 13:48:35;;;;;;;8.65;6.53;;;;;;;;;;4753283;30;20063;-71
2022/12/13 13:51:02;;;;;;;9.90;6.93;;;;;;;;;;4753127;30;20052;-71
2022/12/13 13:53:37;;;;;;;8.57;7.10;;;;;;;;;;4752904;30;20540;-71
2022/12/13 13:56:09;;;;;;;10.05;7.20;;;;;;;;;;4753414;30;20044;-72
2022/12/13 13:58:45;;;;;;;8.38;6.55;;;;;;;;;;4753146;30;20071;-71
2022/12/13 14:01:24;;;;;;;10.38;7.70;;;;;;;;;;4752931;30;20052;-71
2022/12/13 14:04:09;;;;;;;12.07;9.02;;;;;;;;;;4753253;30;20052;-71
2022/12/13 14:06:54;;;;;;;14.20;10.80;;;;;;;;;;4753145;30;20053;-71
2022/12/13 14:09:32;;;;;;;10.20;8.15;;;;;;;;;;4752929;30;20044;-71
2022/12/13 14:12:31;;;;;;;9.88;8.23;;;;;;;;;;4753082;30;20060;-71
2022/12/13 14:15:16;;;;;;;10.45;7.60;;;;;;;;;;4735870;30;20079;-71
2022/12/13 14:18:01;;;;;;;11.20;8.23;;;;;;;;;;4756198;30;20048;-71
2022/12/13 14:20:30;;;;;;;10.00;8.05;;;;;;;;;;4756349;30;20048;-71
2022/12/13 14:23:19;;;;;;;11.20;8.10;;;;;;;;;;4756483;30;20052;-71
2022/12/13 14:26:00;;;;;;;11.48;7.13;;;;;;;;;;4751612;30;20135;-71
2022/12/13 14:28:35;;;;;;;9.50;7.47;;;;;;;;;;4757107;30;20076;-71
2022/12/13 14:31:01;;;;;;;10.18;8.00;;;;;;;;;;4756247;30;20052;-71
2022/12/13 14:33:28;;;;;;;14.10;11.30;;;;;;;;;;4756670;30;20047;-71
2022/12/13 14:35:56;;;;;;;9.45;7.50;;;;;;;;;;4756912;30;20051;-72
2022/12/13 14:38:23;;;;;;;16.13;12.20;;;;;;;;;;4756207;30;20047;-71
2022/12/13 14:40:51;;;;;;;8.80;7.30;;;;;;;;;;4756769;30;20056;-71
2022/12/13 14:43:24;;;;;;;9.05;7.75;;;;;;;;;;4756048;30;20048;-71
2022/12/13 14:45:57;;;;;;;8.95;7.57;;;;;;;;;;4755876;30;20056;-71
2022/12/13 14:48:24;;;;;;;11.15;8.73;;;;;;;;;;4755838;30;20071;-71
2022/12/13 14:50:51;;;;;;;13.05;8.13;;;;;;;;;;4755614;30;20044;-71
2022/12/13 14:53:25;;;;;;;10.82;9.15;;;;;;;;;;4755344;30;20127;-71
2022/12/13 14:56:04;;;;;;;10.65;8.18;;;;;;;;;;4755616;30;20044;-72